createdAt,value
2019-05-01T00:01:36.278Z,33.32
2019-05-01T00:04:50.512Z,33.35
2019-05-01T00:07:54.085Z,33.31
2019-05-01T00:10:57.570Z,33.32
2019-05-01T00:14:01.097Z,33.31
2019-05-01T00:17:04.629Z,33.40
2019-05-01T00:20:08.083Z,33.31
2019-05-01T00:23:11.652Z,33.35
2019-05-01T00:26:15.093Z,33.36
2019-05-01T00:29:18.578Z,33.37
2019-05-01T00:32:22.088Z,33.40
2019-05-01T00:35:25.587Z,33.39
2019-05-01T00:38:29.012Z,33.42
2019-05-01T00:41:32.476Z,33.36
2019-05-01T00:44:36.092Z,33.38
2019-05-01T00:47:40.620Z,33.35
2019-05-01T00:50:45.144Z,33.35
2019-05-01T00:53:48.649Z,33.37
2019-05-01T00:56:58.958Z,33.35
2019-05-01T01:00:23.150Z,33.38
2019-05-01T01:03:26.851Z,33.38
2019-05-01T01:06:30.434Z,33.42
2019-05-01T01:09:34.165Z,33.38
2019-05-01T01:12:37.876Z,33.41
2019-05-01T01:15:41.587Z,33.40
2019-05-01T01:18:45.200Z,33.41
2019-05-01T01:21:48.749Z,33.41
2019-05-01T01:24:52.488Z,33.43
2019-05-01T01:27:56.003Z,33.39
2019-05-01T01:30:59.580Z,33.39
2019-05-01T01:34:04.331Z,33.42
2019-05-01T01:37:08.954Z,33.39
2019-05-01T01:40:13.932Z,33.40
2019-05-01T01:43:54.935Z,33.39
2019-05-01T01:46:58.515Z,33.34
2019-05-01T01:50:02.161Z,33.41
2019-05-01T01:53:05.763Z,33.41
2019-05-01T01:56:09.352Z,33.36
2019-05-01T01:59:12.843Z,33.42
2019-05-01T02:02:23.896Z,33.42
2019-05-01T02:05:33.630Z,33.41
2019-05-01T02:08:37.247Z,33.40
2019-05-01T02:11:40.768Z,33.42
2019-05-01T02:14:44.269Z,33.41
2019-05-01T02:17:47.732Z,33.43
2019-05-01T02:20:51.163Z,33.44
2019-05-01T02:23:54.691Z,33.40
2019-05-01T02:27:00.224Z,33.42
2019-05-01T02:30:05.914Z,33.45
2019-05-01T02:33:10.367Z,33.41
2019-05-01T02:36:14.992Z,33.44
2019-05-01T02:39:18.624Z,33.43
2019-05-01T02:42:22.316Z,33.44
2019-05-01T02:45:25.805Z,33.41
2019-05-01T02:48:31.512Z,33.43
2019-05-01T02:51:35.085Z,33.42
2019-05-01T02:54:39.194Z,33.36
2019-05-01T02:57:42.659Z,33.38
2019-05-01T03:00:46.171Z,33.39
2019-05-01T03:03:49.837Z,33.41
2019-05-01T03:06:53.298Z,33.44
2019-05-01T03:09:56.727Z,33.37
2019-05-01T03:13:00.380Z,33.37
2019-05-01T03:16:04.361Z,33.39
2019-05-01T03:19:11.564Z,33.40
2019-05-01T03:22:43.444Z,33.42
2019-05-01T03:25:47.054Z,33.41
2019-05-01T03:28:50.672Z,33.42
2019-05-01T03:32:16.089Z,33.42
2019-05-01T03:34:59.434Z,33.39
2019-05-01T03:38:02.894Z,33.37
2019-05-01T03:41:06.516Z,33.37
2019-05-01T03:44:10.010Z,33.36
2019-05-01T03:47:13.515Z,33.34
2019-05-01T03:50:17.020Z,33.35
2019-05-01T03:53:20.501Z,33.38
2019-05-01T03:56:23.953Z,33.40
2019-05-01T03:59:28.538Z,33.41
2019-05-01T04:03:03.285Z,33.34
2019-05-01T04:06:06.785Z,33.32
2019-05-01T04:09:10.349Z,33.32
2019-05-01T04:12:13.816Z,33.32
2019-05-01T04:15:17.233Z,33.34
2019-05-01T04:18:20.737Z,33.33
2019-05-01T04:21:27.063Z,33.32
2019-05-01T04:24:30.537Z,33.31
2019-05-01T04:27:36.325Z,33.33
2019-05-01T04:31:13.903Z,33.32
2019-05-01T04:34:35.124Z,33.31
2019-05-01T04:37:38.599Z,33.38
2019-05-01T04:40:43.040Z,33.32
2019-05-01T04:43:46.634Z,33.34
2019-05-01T04:46:50.067Z,33.35
2019-05-01T04:49:53.970Z,33.34
2019-05-01T04:52:57.564Z,33.32
2019-05-01T04:56:01.008Z,33.28
2019-05-01T04:59:04.459Z,33.32
2019-05-01T05:02:09.824Z,33.33
2019-05-01T05:05:13.295Z,33.33
2019-05-01T05:08:16.723Z,33.34
2019-05-01T05:11:24.762Z,33.30
2019-05-01T05:14:31.719Z,33.35
2019-05-01T05:17:35.192Z,33.34
2019-05-01T05:20:38.736Z,33.29
2019-05-01T05:23:43.196Z,33.27
2019-05-01T05:26:46.753Z,33.31
2019-05-01T05:29:50.209Z,33.29
2019-05-01T05:32:53.648Z,33.26
2019-05-01T05:35:57.143Z,33.26
2019-05-01T05:39:08.210Z,33.28
2019-05-01T05:42:11.690Z,33.26
2019-05-01T05:45:15.341Z,33.25
2019-05-01T05:48:19.116Z,33.26
2019-05-01T05:51:41.914Z,33.23
2019-05-01T05:54:54.093Z,33.26
2019-05-01T05:58:02.012Z,33.26
2019-05-01T06:01:21.924Z,33.26
2019-05-01T06:04:57.544Z,33.25
2019-05-01T06:08:12.574Z,33.28
2019-05-01T06:11:39.767Z,33.24
2019-05-01T06:14:56.642Z,33.28
2019-05-01T06:18:05.949Z,33.28
2019-05-01T06:21:19.270Z,33.29
2019-05-01T06:24:27.008Z,33.24
2019-05-01T06:27:31.554Z,33.28
2019-05-01T06:30:35.287Z,33.26
2019-05-01T06:33:44.412Z,33.23
2019-05-01T06:36:48.952Z,33.21
2019-05-01T06:39:49.814Z,33.26
2019-05-01T06:42:53.470Z,33.32
2019-05-01T06:46:27.074Z,33.40
2019-05-01T06:50:06.060Z,33.60
2019-05-01T06:53:06.867Z,33.75
2019-05-01T06:56:10.537Z,33.81
2019-05-01T06:59:14.229Z,33.85
2019-05-01T07:02:18.425Z,33.99
2019-05-01T07:05:22.054Z,33.95
2019-05-01T07:08:29.578Z,33.83
2019-05-01T07:11:31.017Z,33.92
2019-05-01T07:14:34.845Z,33.94
2019-05-01T07:17:38.262Z,33.90
2019-05-01T07:20:53.279Z,33.85
2019-05-01T07:23:56.946Z,33.77
2019-05-01T07:27:00.387Z,33.74
2019-05-01T07:30:15.866Z,33.73
2019-05-01T07:33:19.478Z,33.68
2019-05-01T07:36:22.970Z,33.68
2019-05-01T07:39:26.504Z,33.72
2019-05-01T07:42:32.078Z,33.73
2019-05-01T07:45:45.220Z,33.70
2019-05-01T07:48:48.652Z,33.67
2019-05-01T07:51:53.505Z,33.63
2019-05-01T07:54:57.610Z,33.60
2019-05-01T07:58:01.201Z,33.64
2019-05-01T08:01:13.083Z,33.60
2019-05-01T08:04:19.740Z,33.68
2019-05-01T08:07:22.960Z,33.67
2019-05-01T08:10:30.847Z,33.65
2019-05-01T08:13:35.014Z,33.61
2019-05-01T08:16:42.360Z,33.59
2019-05-01T08:19:51.129Z,33.63
2019-05-01T08:22:54.646Z,33.56
2019-05-01T08:25:58.110Z,33.58
2019-05-01T08:29:29.654Z,33.58
2019-05-01T08:32:38.990Z,33.62
2019-05-01T08:35:43.633Z,33.63
2019-05-01T08:38:47.121Z,33.63
2019-05-01T08:41:50.624Z,33.58
2019-05-01T08:45:11.819Z,33.55
2019-05-01T08:48:25.801Z,33.59
2019-05-01T08:51:29.999Z,33.52
2019-05-01T08:54:34.992Z,33.43
2019-05-01T08:57:39.592Z,33.35
2019-05-01T09:00:43.171Z,33.32
2019-05-01T09:03:49.683Z,33.30
2019-05-01T09:06:51.808Z,33.26
2019-05-01T09:09:55.304Z,33.25
2019-05-01T09:12:58.814Z,33.32
2019-05-01T09:16:03.335Z,33.42
2019-05-01T09:19:06.834Z,33.38
2019-05-01T09:22:11.364Z,33.39
2019-05-01T09:25:17.266Z,33.37
2019-05-01T09:28:26.630Z,33.38
2019-05-01T09:31:34.024Z,33.37
2019-05-01T09:34:37.039Z,33.37
2019-05-01T09:37:40.539Z,33.36
2019-05-01T09:40:45.170Z,33.35
2019-05-01T09:43:48.586Z,33.34
2019-05-01T09:46:52.239Z,33.34
2019-05-01T09:49:56.051Z,33.34
2019-05-01T09:53:25.310Z,33.34
2019-05-01T09:56:29.918Z,33.35
2019-05-01T09:59:33.683Z,33.33
2019-05-01T10:02:37.553Z,33.34
2019-05-01T10:05:42.840Z,33.30
2019-05-01T10:08:47.551Z,33.31
2019-05-01T10:11:53.088Z,33.28
2019-05-01T10:14:56.558Z,33.25
2019-05-01T10:18:00.109Z,33.25
2019-05-01T10:21:03.567Z,33.26
2019-05-01T10:24:07.191Z,33.26
2019-05-01T10:27:16.939Z,33.23
2019-05-01T10:30:41.327Z,33.23
2019-05-01T10:33:46.701Z,33.24
2019-05-01T10:36:54.625Z,33.25
2019-05-01T10:39:56.097Z,33.24
2019-05-01T10:42:59.595Z,33.28
2019-05-01T10:46:03.106Z,33.23
2019-05-01T10:49:06.640Z,33.24
2019-05-01T10:52:14.446Z,33.23
2019-05-01T10:55:15.238Z,33.20
2019-05-01T10:58:20.256Z,33.18
2019-05-01T11:01:45.548Z,33.21
2019-05-01T11:04:49.094Z,33.21
2019-05-01T11:07:52.594Z,33.21
2019-05-01T11:10:56.112Z,33.21
2019-05-01T11:13:59.710Z,33.26
2019-05-01T11:17:03.281Z,33.63
2019-05-01T11:20:07.887Z,33.62
2019-05-01T11:23:11.322Z,33.58
2019-05-01T11:26:15.840Z,33.55
2019-05-01T11:29:20.382Z,33.50
2019-05-01T11:32:40.973Z,33.47
2019-05-01T11:36:12.219Z,33.45
2019-05-01T11:39:26.069Z,33.42
2019-05-01T11:42:37.574Z,33.41
2019-05-01T11:45:41.162Z,33.35
2019-05-01T11:48:44.787Z,33.31
2019-05-01T11:51:48.378Z,33.27
2019-05-01T11:54:51.876Z,33.29
2019-05-01T11:57:55.369Z,33.29
2019-05-01T12:01:00.549Z,33.26
2019-05-01T12:04:04.025Z,33.29
2019-05-01T12:07:08.546Z,33.28
2019-05-01T12:10:14.383Z,33.26
2019-05-01T12:13:17.406Z,33.24
2019-05-01T12:16:43.052Z,33.24
2019-05-01T12:19:46.500Z,33.24
2019-05-01T12:22:51.503Z,33.25
2019-05-01T12:25:55.123Z,33.19
2019-05-01T12:28:58.646Z,33.16
2019-05-01T12:32:03.211Z,33.11
2019-05-01T12:35:06.874Z,33.06
2019-05-01T12:38:10.376Z,33.06
2019-05-01T12:41:29.971Z,32.97
2019-05-01T12:44:33.561Z,32.97
2019-05-01T12:47:49.537Z,33.01
2019-05-01T12:50:53.111Z,32.95
2019-05-01T12:54:09.797Z,32.89
2019-05-01T12:57:13.620Z,32.76
2019-05-01T13:00:18.600Z,32.73
2019-05-01T13:03:23.038Z,32.77
2019-05-01T13:06:27.564Z,32.72
2019-05-01T13:09:32.089Z,32.74
2019-05-01T13:12:36.658Z,32.73
2019-05-01T13:15:40.112Z,32.75
2019-05-01T13:18:44.632Z,32.73
2019-05-01T13:21:48.169Z,32.79
2019-05-01T13:24:51.643Z,32.82
2019-05-01T13:28:09.802Z,32.80
2019-05-01T13:31:25.151Z,32.81
2019-05-01T13:34:28.745Z,32.77
2019-05-01T13:37:32.268Z,32.73
2019-05-01T13:40:36.804Z,32.76
2019-05-01T13:43:40.286Z,32.75
2019-05-01T13:46:43.798Z,32.68
2019-05-01T13:49:49.382Z,32.70
2019-05-01T13:52:53.857Z,32.66
2019-05-01T13:55:58.394Z,32.69
2019-05-01T13:59:01.897Z,32.59
2019-05-01T14:02:06.419Z,32.52
2019-05-01T14:05:10.954Z,32.48
2019-05-01T14:08:20.429Z,32.53
2019-05-01T14:11:23.916Z,32.46
2019-05-01T14:14:27.385Z,32.48
2019-05-01T14:17:30.919Z,32.51
2019-05-01T14:20:52.064Z,32.50
2019-05-01T14:24:04.437Z,32.52
2019-05-01T14:27:07.997Z,32.54
2019-05-01T14:30:13.560Z,32.53
2019-05-01T14:33:17.244Z,32.57
2019-05-01T14:36:20.894Z,32.56
2019-05-01T14:39:24.645Z,32.57
2019-05-01T14:42:30.461Z,32.54
2019-05-01T14:45:36.228Z,32.51
2019-05-01T14:48:39.891Z,32.50
2019-05-01T14:51:43.402Z,32.54
2019-05-01T14:54:46.920Z,32.58
2019-05-01T14:57:50.395Z,32.53
2019-05-01T15:00:53.918Z,32.54
2019-05-01T15:03:57.407Z,32.48
2019-05-01T15:07:01.921Z,32.52
2019-05-01T15:10:05.735Z,32.51
2019-05-01T15:13:19.608Z,32.55
2019-05-01T15:16:34.122Z,32.53
2019-05-01T15:19:42.746Z,32.54
2019-05-01T15:22:46.250Z,32.55
2019-05-01T15:25:50.778Z,32.54
2019-05-01T15:28:54.284Z,32.60
2019-05-01T15:31:57.806Z,32.52
2019-05-01T15:35:01.284Z,32.50
2019-05-01T15:38:04.785Z,32.42
2019-05-01T15:41:17.154Z,32.42
2019-05-01T15:44:24.411Z,32.41
2019-05-01T15:47:29.011Z,32.34
2019-05-01T15:50:34.542Z,32.32
2019-05-01T15:53:38.059Z,32.30
2019-05-01T15:56:43.468Z,32.31
2019-05-01T15:59:46.912Z,32.31
2019-05-01T16:02:51.431Z,32.30
2019-05-01T16:05:57.028Z,32.31
2019-05-01T16:09:00.483Z,32.31
2019-05-01T16:12:11.094Z,32.29
2019-05-01T16:15:20.103Z,32.33
2019-05-01T16:18:26.556Z,32.31
2019-05-01T16:21:31.075Z,32.40
2019-05-01T16:24:36.625Z,32.31
2019-05-01T16:27:41.167Z,32.33
2019-05-01T16:30:45.688Z,32.37
2019-05-01T16:33:51.041Z,32.54
2019-05-01T16:36:57.708Z,32.49
2019-05-01T16:40:19.323Z,32.49
2019-05-01T16:43:23.849Z,32.57
2019-05-01T16:46:27.355Z,32.58
2019-05-01T16:49:31.868Z,32.58
2019-05-01T16:52:35.589Z,32.59
2019-05-01T16:55:39.082Z,32.62
2019-05-01T16:58:42.853Z,32.59
2019-05-01T17:01:53.802Z,32.63
2019-05-01T17:05:17.686Z,32.70
2019-05-01T17:08:40.290Z,32.67
2019-05-01T17:11:43.897Z,32.62
2019-05-01T17:14:47.398Z,32.58
2019-05-01T17:17:50.916Z,32.54
2019-05-01T17:20:54.400Z,32.55
2019-05-01T17:23:57.915Z,32.51
2019-05-01T17:27:01.470Z,32.46
2019-05-01T17:30:07.174Z,32.53
2019-05-01T17:33:19.459Z,32.54
2019-05-01T17:36:15.994Z,32.50
2019-05-01T17:39:19.595Z,32.49
2019-05-01T17:42:22.996Z,32.53
2019-05-01T17:45:29.790Z,32.51
2019-05-01T17:48:33.622Z,32.50
2019-05-01T17:51:37.248Z,32.49
2019-05-01T17:54:40.695Z,32.52
2019-05-01T17:57:44.370Z,32.51
2019-05-01T18:01:01.207Z,32.51
2019-05-01T18:04:17.084Z,32.53
2019-05-01T18:07:20.551Z,32.60
2019-05-01T18:10:26.235Z,32.61
2019-05-01T18:13:29.813Z,32.61
2019-05-01T18:16:33.315Z,32.63
2019-05-01T18:19:38.855Z,32.60
2019-05-01T18:22:55.976Z,32.59
2019-05-01T18:26:13.454Z,32.60
2019-05-01T18:29:24.447Z,32.59
2019-05-01T18:32:47.394Z,32.81
2019-05-01T18:35:49.225Z,33.08
2019-05-01T18:38:59.824Z,33.07
2019-05-01T18:42:05.511Z,33.03
2019-05-01T18:45:11.062Z,33.01
2019-05-01T18:48:15.655Z,33.02
2019-05-01T18:51:19.151Z,33.07
2019-05-01T18:54:22.563Z,33.03
2019-05-01T18:57:26.149Z,33.07
2019-05-01T19:00:32.729Z,33.06
2019-05-01T19:03:37.293Z,33.10
2019-05-01T19:06:44.871Z,33.08
2019-05-01T19:09:47.557Z,33.11
2019-05-01T19:12:51.067Z,33.06
2019-05-01T19:15:55.584Z,33.10
2019-05-01T19:18:59.078Z,33.08
2019-05-01T19:22:02.640Z,33.06
2019-05-01T19:25:06.066Z,33.07
2019-05-01T19:28:11.217Z,33.08
2019-05-01T19:31:14.719Z,33.06
2019-05-01T19:34:18.193Z,33.03
2019-05-01T19:37:22.350Z,33.06
2019-05-01T19:40:30.802Z,33.05
2019-05-01T19:43:35.735Z,33.10
2019-05-01T19:46:37.116Z,33.11
2019-05-01T19:49:40.616Z,33.11
2019-05-01T19:52:45.157Z,33.10
2019-05-01T19:55:48.665Z,33.11
2019-05-01T19:58:53.154Z,33.19
2019-05-01T20:01:56.701Z,33.24
2019-05-01T20:05:00.079Z,33.26
2019-05-01T20:08:03.678Z,33.30
2019-05-01T20:11:09.582Z,33.21
2019-05-01T20:14:12.412Z,33.26
2019-05-01T20:17:16.061Z,33.27
2019-05-01T20:20:20.541Z,33.26
2019-05-01T20:23:26.084Z,33.30
2019-05-01T20:26:32.020Z,33.28
2019-05-01T20:29:37.374Z,33.23
2019-05-01T20:32:40.908Z,33.26
2019-05-01T20:35:44.390Z,33.26
2019-05-01T20:38:48.919Z,33.32
2019-05-01T20:41:52.562Z,33.29
2019-05-01T20:45:04.417Z,33.30
2019-05-01T20:48:01.200Z,33.30
2019-05-01T20:51:04.666Z,33.32
2019-05-01T20:54:08.256Z,33.35
2019-05-01T20:57:20.970Z,33.32
2019-05-01T21:00:24.955Z,33.36
2019-05-01T21:03:28.466Z,33.35
2019-05-01T21:06:39.085Z,33.40
2019-05-01T21:09:47.854Z,33.40
2019-05-01T21:12:48.171Z,33.35
2019-05-01T21:15:56.453Z,33.39
2019-05-01T21:18:57.129Z,33.42
2019-05-01T21:22:00.728Z,33.39
2019-05-01T21:25:04.666Z,33.32
2019-05-01T21:28:08.452Z,33.36
2019-05-01T21:31:13.777Z,33.38
2019-05-01T21:34:18.361Z,33.42
2019-05-01T21:37:22.013Z,33.37
2019-05-01T21:40:37.665Z,33.35
2019-05-01T21:43:33.119Z,33.38
2019-05-01T21:46:39.165Z,33.41
2019-05-01T21:49:43.019Z,33.47
2019-05-01T21:52:46.664Z,33.46
2019-05-01T21:55:50.226Z,33.41
2019-05-01T21:58:55.031Z,33.50
2019-05-01T22:01:58.675Z,33.46
2019-05-01T22:05:04.134Z,33.48
2019-05-01T22:08:08.519Z,33.41
2019-05-01T22:11:11.942Z,33.50
2019-05-01T22:14:31.053Z,33.48
2019-05-01T22:17:54.802Z,33.46
2019-05-01T22:21:13.806Z,33.46
2019-05-01T22:24:35.482Z,33.54
2019-05-01T22:27:45.725Z,33.46
2019-05-01T22:30:54.803Z,33.52
2019-05-01T22:34:06.487Z,33.53
2019-05-01T22:37:11.983Z,33.61
2019-05-01T22:40:17.372Z,33.56
2019-05-01T22:43:20.850Z,33.54
2019-05-01T22:46:29.011Z,33.52
2019-05-01T22:49:32.548Z,33.54
2019-05-01T22:52:35.965Z,33.56
2019-05-01T22:55:39.379Z,33.56
2019-05-01T22:58:43.895Z,33.58
2019-05-01T23:01:52.912Z,33.60
2019-05-01T23:04:54.620Z,33.66
2019-05-01T23:07:58.024Z,33.61
2019-05-01T23:11:01.565Z,33.58
2019-05-01T23:14:05.166Z,33.58
2019-05-01T23:17:17.413Z,33.62
2019-05-01T23:20:20.874Z,33.60
2019-05-01T23:23:24.581Z,33.61
2019-05-01T23:26:27.990Z,33.60
2019-05-01T23:29:31.404Z,33.62
2019-05-01T23:32:34.807Z,33.63
2019-05-01T23:35:38.522Z,33.63
2019-05-01T23:38:42.003Z,33.62
2019-05-01T23:41:47.051Z,33.62
2019-05-01T23:44:51.768Z,33.63
2019-05-01T23:47:55.172Z,33.63
2019-05-01T23:50:59.701Z,33.67
2019-05-01T23:54:03.174Z,33.64
2019-05-01T23:57:06.786Z,33.62
